createdAt,value
2023-01-20T00:00:08.086Z,23.42
2023-01-20T00:01:32.399Z,23.44
2023-01-20T00:02:49.722Z,23.45
2023-01-20T00:04:06.137Z,23.45
2023-01-20T00:05:21.790Z,23.46
2023-01-20T00:06:36.138Z,23.47
2023-01-20T00:07:45.956Z,23.46
2023-01-20T00:09:03.026Z,23.47
2023-01-20T00:11:30.861Z,23.61
2023-01-20T00:12:33.532Z,23.49
2023-01-20T00:13:36.219Z,23.50
2023-01-20T00:14:38.872Z,23.52
2023-01-20T00:15:41.976Z,23.52
2023-01-20T00:16:44.574Z,23.52
2023-01-20T00:17:47.940Z,23.55
2023-01-20T00:18:51.539Z,23.55
2023-01-20T00:19:55.184Z,23.56
2023-01-20T00:21:03.460Z,23.57
2023-01-20T00:22:05.848Z,23.59
2023-01-20T00:23:08.822Z,23.60
2023-01-20T00:24:11.174Z,23.60
2023-01-20T00:25:13.836Z,23.61
2023-01-20T00:26:20.606Z,23.61
2023-01-20T00:27:24.045Z,23.63
2023-01-20T00:28:27.704Z,23.63
2023-01-20T00:29:31.712Z,23.64
2023-01-20T00:30:35.173Z,23.64
2023-01-20T00:31:37.873Z,23.64
2023-01-20T00:32:43.612Z,23.65
2023-01-20T00:33:46.868Z,23.65
2023-01-20T00:34:49.536Z,23.66
2023-01-20T00:35:52.575Z,23.66
2023-01-20T00:36:55.898Z,23.68
2023-01-20T00:37:58.434Z,23.68
2023-01-20T00:39:02.180Z,23.69
2023-01-20T00:40:07.181Z,23.70
2023-01-20T00:41:09.855Z,23.72
2023-01-20T00:42:12.918Z,23.72
2023-01-20T00:43:15.288Z,23.73
2023-01-20T00:44:18.950Z,23.73
2023-01-20T00:45:21.480Z,23.74
2023-01-20T00:46:24.917Z,23.74
2023-01-20T00:47:27.950Z,23.75
2023-01-20T00:48:31.332Z,23.76
2023-01-20T00:49:33.832Z,23.76
2023-01-20T00:50:38.533Z,23.76
2023-01-20T00:51:41.044Z,23.76
2023-01-20T00:52:43.337Z,23.77
2023-01-20T00:53:46.530Z,23.77
2023-01-20T00:54:49.939Z,23.77
2023-01-20T00:55:52.317Z,23.78
2023-01-20T00:56:55.756Z,23.78
2023-01-20T00:57:58.363Z,23.77
2023-01-20T00:59:00.692Z,23.79
2023-01-20T01:00:05.351Z,23.79
2023-01-20T01:01:07.810Z,23.34
2023-01-20T01:02:10.366Z,23.79
2023-01-20T01:03:12.901Z,23.79
2023-01-20T01:04:16.027Z,23.75
2023-01-20T01:05:18.826Z,23.75
2023-01-20T01:06:23.255Z,23.80
2023-01-20T01:07:25.613Z,23.82
2023-01-20T01:08:28.036Z,23.82
2023-01-20T01:09:31.925Z,23.82
2023-01-20T01:10:34.497Z,23.82
2023-01-20T01:11:36.931Z,23.83
2023-01-20T01:12:39.266Z,23.83
2023-01-20T01:13:41.597Z,23.83
2023-01-20T01:14:44.146Z,23.83
2023-01-20T01:15:50.093Z,23.84
2023-01-20T01:16:52.803Z,23.84
2023-01-20T01:17:55.820Z,23.85
2023-01-20T01:18:59.186Z,23.84
2023-01-20T01:20:03.628Z,23.85
2023-01-20T01:21:09.958Z,23.85
2023-01-20T01:22:13.369Z,23.83
2023-01-20T01:23:15.840Z,23.84
2023-01-20T01:24:20.316Z,23.84
2023-01-20T01:25:23.083Z,23.84
2023-01-20T01:26:25.504Z,23.86
2023-01-20T01:27:28.526Z,23.85
2023-01-20T01:28:31.787Z,23.87
2023-01-20T01:29:34.567Z,23.88
2023-01-20T01:30:39.719Z,23.88
2023-01-20T01:31:42.396Z,23.88
2023-01-20T01:32:45.859Z,23.89
2023-01-20T01:33:49.149Z,23.88
2023-01-20T01:34:51.827Z,23.89
2023-01-20T01:37:08.541Z,24.00
2023-01-20T01:38:10.723Z,23.90
2023-01-20T01:39:13.649Z,23.89
2023-01-20T01:40:17.937Z,23.90
2023-01-20T01:41:20.313Z,23.90
2023-01-20T01:42:25.140Z,23.90
2023-01-20T01:43:29.482Z,23.90
2023-01-20T01:44:31.753Z,23.91
2023-01-20T01:45:35.788Z,23.91
2023-01-20T01:46:39.088Z,23.91
2023-01-20T01:47:48.342Z,23.93
2023-01-20T01:48:51.109Z,23.93
2023-01-20T01:49:53.415Z,23.93
2023-01-20T01:52:20.842Z,24.05
2023-01-20T01:53:25.099Z,23.93
2023-01-20T02:36:13.514Z,21.26
2023-01-20T02:38:47.386Z,21.34
2023-01-20T02:41:33.092Z,21.53
2023-01-20T02:42:45.640Z,21.50
2023-01-20T02:43:54.905Z,21.62
2023-01-20T02:45:21.803Z,21.73
2023-01-20T02:46:27.087Z,21.83
2023-01-20T02:47:51.608Z,21.96
2023-01-20T02:48:55.621Z,22.06
2023-01-20T02:50:23.032Z,22.16
2023-01-20T02:51:31.176Z,22.24
2023-01-20T02:53:55.690Z,22.55
2023-01-20T02:54:59.725Z,22.49
2023-01-20T02:56:02.317Z,22.56
2023-01-20T02:57:06.639Z,22.63
2023-01-20T02:58:25.434Z,22.69
2023-01-20T02:59:30.473Z,22.75
2023-01-20T03:00:37.017Z,22.80
2023-01-20T03:01:42.927Z,22.85
2023-01-20T03:02:45.411Z,22.90
2023-01-20T03:03:48.948Z,22.95
2023-01-20T03:04:54.598Z,22.98
2023-01-20T03:05:58.520Z,23.03
2023-01-20T03:07:02.605Z,23.06
2023-01-20T03:08:06.592Z,23.10
2023-01-20T03:09:10.744Z,23.13
2023-01-20T03:10:15.222Z,23.17
2023-01-20T03:11:18.174Z,23.20
2023-01-20T03:12:35.790Z,23.23
2023-01-20T03:13:59.318Z,23.25
2023-01-20T03:15:01.569Z,23.28
2023-01-20T03:16:11.892Z,23.30
2023-01-20T03:17:15.608Z,23.32
2023-01-20T03:18:18.195Z,23.34
2023-01-20T03:19:21.341Z,23.35
2023-01-20T03:20:23.863Z,23.38
2023-01-20T03:21:26.343Z,23.40
2023-01-20T03:22:30.373Z,23.42
2023-01-20T03:23:35.677Z,23.43
2023-01-20T03:24:38.241Z,23.45
2023-01-20T03:25:41.296Z,23.46
2023-01-20T03:26:44.283Z,23.48
2023-01-20T03:27:46.944Z,23.48
2023-01-20T03:28:49.655Z,23.50
2023-01-20T03:29:52.066Z,23.52
2023-01-20T03:30:55.331Z,23.52
2023-01-20T03:32:01.833Z,23.52
2023-01-20T03:33:04.412Z,23.53
2023-01-20T03:34:12.132Z,23.54
2023-01-20T03:35:15.745Z,23.55
2023-01-20T03:36:18.809Z,23.56
2023-01-20T03:37:21.787Z,23.57
2023-01-20T03:38:25.323Z,23.58
2023-01-20T03:39:27.612Z,23.59
2023-01-20T03:40:32.680Z,23.59
2023-01-20T03:41:54.230Z,23.59
2023-01-20T03:44:50.525Z,23.71
2023-01-20T03:47:19.431Z,23.69
2023-01-20T03:48:37.986Z,23.58
2023-01-20T03:50:07.930Z,23.58
2023-01-20T03:52:46.589Z,23.69
2023-01-20T03:53:44.020Z,23.57
2023-01-20T03:54:56.275Z,23.57
2023-01-20T03:57:19.471Z,23.68
2023-01-20T03:58:34.777Z,23.58
2023-01-20T03:59:38.642Z,23.58
2023-01-20T04:00:43.441Z,23.58
2023-01-20T04:01:46.332Z,23.58
2023-01-20T04:02:49.495Z,23.61
2023-01-20T04:03:52.647Z,23.62
2023-01-20T04:04:55.492Z,23.62
2023-01-20T04:05:58.130Z,23.63
2023-01-20T04:07:00.912Z,23.62
2023-01-20T04:08:04.915Z,23.64
2023-01-20T04:09:08.868Z,23.64
2023-01-20T04:10:13.247Z,23.65
2023-01-20T04:11:16.764Z,23.66
2023-01-20T04:12:20.332Z,23.67
2023-01-20T04:13:22.971Z,23.67
2023-01-20T04:14:25.166Z,23.68
2023-01-20T04:15:30.326Z,23.69
2023-01-20T04:16:33.328Z,23.70
2023-01-20T04:17:35.681Z,23.71
2023-01-20T04:18:40.560Z,23.69
2023-01-20T04:19:42.933Z,23.71
2023-01-20T04:20:48.594Z,23.72
2023-01-20T04:23:25.320Z,23.83
2023-01-20T04:24:53.795Z,23.72
2023-01-20T04:25:56.157Z,23.71
2023-01-20T04:27:00.568Z,23.71
2023-01-20T04:28:04.385Z,23.72
2023-01-20T04:29:12.814Z,23.71
2023-01-20T04:30:14.347Z,23.71
2023-01-20T04:31:29.700Z,23.71
2023-01-20T04:32:21.954Z,23.70
2023-01-20T04:33:24.426Z,23.72
2023-01-20T04:34:27.076Z,23.72
2023-01-20T04:35:29.508Z,23.71
2023-01-20T04:36:31.972Z,23.72
2023-01-20T04:37:35.805Z,23.72
2023-01-20T04:38:38.533Z,23.73
2023-01-20T04:39:41.101Z,23.72
2023-01-20T04:40:43.801Z,23.72
2023-01-20T04:41:47.219Z,23.73
2023-01-20T04:42:50.861Z,23.73
2023-01-20T04:43:53.329Z,23.74
2023-01-20T04:44:56.052Z,23.74
2023-01-20T04:45:59.126Z,23.75
2023-01-20T04:47:02.464Z,23.75
2023-01-20T04:48:06.900Z,23.76
2023-01-20T04:49:10.498Z,23.76
2023-01-20T04:50:14.821Z,23.78
2023-01-20T04:51:17.371Z,23.78
2023-01-20T04:52:19.858Z,23.78
2023-01-20T04:53:22.267Z,23.79
2023-01-20T04:54:25.146Z,23.80
2023-01-20T04:55:27.514Z,23.80
2023-01-20T04:56:29.947Z,23.80
2023-01-20T04:57:32.956Z,23.80
2023-01-20T04:58:38.445Z,23.80
2023-01-20T04:59:41.689Z,23.81
2023-01-20T05:00:45.040Z,23.82
2023-01-20T05:01:47.458Z,23.83
2023-01-20T05:02:49.808Z,23.82
2023-01-20T05:03:53.423Z,23.81
2023-01-20T05:04:57.114Z,23.82
2023-01-20T05:05:59.421Z,23.81
2023-01-20T05:07:02.452Z,23.82
2023-01-20T05:08:05.586Z,23.82
2023-01-20T05:09:10.982Z,23.81
2023-01-20T05:10:16.097Z,23.82
2023-01-20T05:11:19.017Z,23.82
2023-01-20T05:12:21.567Z,23.81
2023-01-20T05:13:24.113Z,23.81
2023-01-20T05:14:27.528Z,23.83
2023-01-20T05:15:30.728Z,23.83
2023-01-20T05:16:34.380Z,23.83
2023-01-20T05:17:36.902Z,23.83
2023-01-20T05:18:39.326Z,23.83
2023-01-20T05:19:43.052Z,23.82
2023-01-20T05:20:48.698Z,23.84
2023-01-20T05:21:51.208Z,23.83
2023-01-20T05:22:54.225Z,23.84
2023-01-20T05:23:56.700Z,23.83
2023-01-20T05:25:00.221Z,23.82
2023-01-20T05:26:02.816Z,23.83
2023-01-20T05:27:05.203Z,23.82
2023-01-20T05:28:07.666Z,23.82
2023-01-20T05:29:10.096Z,23.81
2023-01-20T05:30:13.986Z,23.82
2023-01-20T05:31:18.020Z,23.82
2023-01-20T05:32:20.570Z,23.82
2023-01-20T05:33:23.456Z,23.82
2023-01-20T05:34:25.923Z,23.81
2023-01-20T05:35:28.898Z,23.81
2023-01-20T05:36:33.318Z,23.80
2023-01-20T05:37:36.779Z,23.80
2023-01-20T05:38:39.370Z,23.76
2023-01-20T05:39:41.840Z,23.76
2023-01-20T05:40:44.243Z,23.80
2023-01-20T05:41:46.912Z,23.80
2023-01-20T05:42:49.563Z,23.80
2023-01-20T05:43:55.355Z,23.80
2023-01-20T05:44:58.472Z,23.81
2023-01-20T05:46:00.981Z,23.80
2023-01-20T05:47:03.279Z,23.80
2023-01-20T05:48:06.167Z,23.80
2023-01-20T05:49:11.362Z,23.80
2023-01-20T05:50:14.475Z,23.80
2023-01-20T05:51:18.124Z,23.79
2023-01-20T05:52:21.132Z,23.80
2023-01-20T05:53:25.955Z,23.79
2023-01-20T05:54:28.869Z,23.79
2023-01-20T05:55:31.635Z,23.79
2023-01-20T05:56:34.919Z,23.80
2023-01-20T05:57:37.570Z,23.80
2023-01-20T05:58:40.299Z,23.80
2023-01-20T05:59:43.083Z,23.79
2023-01-20T06:00:46.670Z,23.80
2023-01-20T06:01:49.592Z,23.79
2023-01-20T06:02:53.187Z,23.79
2023-01-20T06:03:56.899Z,23.80
2023-01-20T06:06:32.460Z,23.90
2023-01-20T06:07:36.426Z,23.79
2023-01-20T06:08:38.888Z,23.79
2023-01-20T06:09:42.441Z,23.78
2023-01-20T06:10:44.906Z,23.80
2023-01-20T06:11:48.203Z,23.79
2023-01-20T06:12:52.616Z,23.80
2023-01-20T06:13:57.284Z,23.80
2023-01-20T06:15:01.698Z,23.78
2023-01-20T06:16:07.348Z,23.79
2023-01-20T06:17:10.525Z,23.80
2023-01-20T06:18:13.545Z,23.79
2023-01-20T06:19:16.423Z,23.79
2023-01-20T06:20:18.914Z,23.79
2023-01-20T06:21:22.238Z,23.80
2023-01-20T06:22:25.494Z,23.80
2023-01-20T06:23:28.576Z,23.79
2023-01-20T06:24:31.114Z,23.80
2023-01-20T06:25:33.408Z,23.81
2023-01-20T06:26:36.069Z,23.81
2023-01-20T06:27:38.362Z,23.81
2023-01-20T06:28:42.008Z,23.81
2023-01-20T06:29:45.600Z,23.81
2023-01-20T06:30:48.173Z,23.81
2023-01-20T06:31:51.654Z,23.82
2023-01-20T06:32:54.481Z,23.77
2023-01-20T06:33:57.502Z,23.82
2023-01-20T06:34:59.881Z,23.82
2023-01-20T06:36:03.303Z,23.82
2023-01-20T06:37:06.670Z,23.83
2023-01-20T06:38:10.435Z,23.84
2023-01-20T06:39:14.071Z,23.83
2023-01-20T06:40:17.544Z,23.84
2023-01-20T06:41:20.819Z,23.83
2023-01-20T06:42:23.976Z,23.84
2023-01-20T06:43:31.143Z,23.84
2023-01-20T06:44:33.852Z,23.84
2023-01-20T06:45:37.941Z,23.84
2023-01-20T06:46:41.040Z,23.83
2023-01-20T06:47:43.555Z,23.83
2023-01-20T06:48:45.873Z,23.84
2023-01-20T06:49:48.736Z,23.84
2023-01-20T06:50:51.235Z,23.84
2023-01-20T06:51:54.298Z,23.84
2023-01-20T06:52:57.684Z,23.84
2023-01-20T06:54:00.156Z,23.83
2023-01-20T06:55:02.831Z,23.83
2023-01-20T06:56:06.378Z,23.83
2023-01-20T06:57:08.717Z,23.83
2023-01-20T06:58:11.150Z,23.83
2023-01-20T06:59:14.409Z,23.83
2023-01-20T07:00:17.952Z,23.83
2023-01-20T07:01:25.920Z,23.84
2023-01-20T07:02:29.562Z,23.83
2023-01-20T07:03:32.848Z,23.82
2023-01-20T07:04:37.005Z,23.82
2023-01-20T07:05:39.648Z,23.83
2023-01-20T07:06:42.435Z,23.82
2023-01-20T07:07:46.728Z,23.83
2023-01-20T07:08:49.246Z,23.82
2023-01-20T07:09:54.263Z,23.83
2023-01-20T07:10:56.777Z,23.84
2023-01-20T07:11:59.192Z,23.83
2023-01-20T07:13:02.713Z,23.83
2023-01-20T07:14:06.490Z,23.83
2023-01-20T07:15:11.749Z,23.83
2023-01-20T07:16:15.889Z,23.83
2023-01-20T07:17:19.357Z,23.83
2023-01-20T07:18:21.851Z,23.83
2023-01-20T07:19:24.303Z,23.83
2023-01-20T07:20:27.775Z,23.84
2023-01-20T07:21:30.830Z,23.83
2023-01-20T07:22:33.838Z,23.83
2023-01-20T07:23:36.447Z,23.83
2023-01-20T07:24:38.872Z,23.83
2023-01-20T07:25:41.311Z,23.83
2023-01-20T07:26:43.718Z,23.83
2023-01-20T07:27:46.642Z,23.83
2023-01-20T07:28:49.716Z,23.84
2023-01-20T07:29:52.771Z,23.83
2023-01-20T07:30:55.231Z,23.82
2023-01-20T07:31:57.765Z,23.83
2023-01-20T07:33:01.069Z,23.83
2023-01-20T07:34:03.485Z,23.83
2023-01-20T07:35:06.791Z,23.83
2023-01-20T07:36:09.753Z,23.84
2023-01-20T07:37:13.523Z,23.84
2023-01-20T07:38:15.938Z,23.83
2023-01-20T07:39:20.646Z,23.83
2023-01-20T07:40:23.167Z,23.84
2023-01-20T07:41:25.630Z,23.84
2023-01-20T07:42:28.920Z,23.84
2023-01-20T07:43:31.485Z,23.83
2023-01-20T07:44:34.376Z,23.83
2023-01-20T07:45:36.967Z,23.83
2023-01-20T07:46:40.408Z,23.82
2023-01-20T07:47:43.258Z,23.81
2023-01-20T07:48:46.294Z,23.82
2023-01-20T07:49:48.750Z,23.82
2023-01-20T07:51:06.011Z,23.81
2023-01-20T07:52:08.493Z,23.81
2023-01-20T07:53:12.019Z,23.82
2023-01-20T07:54:16.049Z,23.80
2023-01-20T07:55:19.048Z,23.81
2023-01-20T07:56:27.037Z,23.79
2023-01-20T07:58:45.320Z,23.90
2023-01-20T07:59:47.750Z,23.78
2023-01-20T08:00:50.556Z,23.78
2023-01-20T08:01:53.318Z,23.78
2023-01-20T08:02:55.977Z,23.78
2023-01-20T08:04:00.926Z,23.79
2023-01-20T08:05:03.882Z,23.80
2023-01-20T08:06:07.975Z,23.79
2023-01-20T08:07:11.653Z,23.81
2023-01-20T08:08:15.069Z,23.80
2023-01-20T08:09:17.648Z,23.81
2023-01-20T08:10:20.987Z,23.81
2023-01-20T08:11:23.906Z,23.81
2023-01-20T08:12:26.244Z,23.80
2023-01-20T08:13:30.436Z,23.80
2023-01-20T08:14:36.979Z,23.81
2023-01-20T08:15:39.207Z,23.80
2023-01-20T08:16:42.533Z,23.81
2023-01-20T08:17:45.380Z,23.81
2023-01-20T08:18:48.284Z,23.81
2023-01-20T08:19:50.566Z,23.81
2023-01-20T08:20:54.109Z,23.80
2023-01-20T08:21:56.871Z,23.81
2023-01-20T08:22:59.282Z,23.81
2023-01-20T08:24:05.060Z,23.82
2023-01-20T08:25:08.247Z,23.81
2023-01-20T08:26:11.432Z,23.80
2023-01-20T08:27:14.954Z,23.81
2023-01-20T08:28:20.294Z,23.81
2023-01-20T08:29:22.651Z,23.81
2023-01-20T08:30:25.176Z,23.80
2023-01-20T08:31:27.662Z,23.80
2023-01-20T08:32:31.328Z,23.80
2023-01-20T08:33:33.797Z,23.80
2023-01-20T08:34:36.743Z,23.80
2023-01-20T08:35:39.392Z,23.80
2023-01-20T08:36:42.389Z,23.80
2023-01-20T08:37:45.355Z,23.80
2023-01-20T08:38:51.608Z,23.79
2023-01-20T08:39:56.270Z,23.80
2023-01-20T08:40:59.168Z,23.79
2023-01-20T08:42:01.590Z,23.79
2023-01-20T08:43:03.820Z,23.79
2023-01-20T08:44:07.561Z,23.78
2023-01-20T08:45:10.298Z,23.78
2023-01-20T08:46:17.652Z,23.77
2023-01-20T08:47:20.344Z,23.77
2023-01-20T08:48:23.307Z,23.77
2023-01-20T08:49:25.894Z,23.78
2023-01-20T08:50:28.895Z,23.78
2023-01-20T08:51:31.585Z,23.78
2023-01-20T08:52:34.256Z,23.79
2023-01-20T08:53:37.080Z,23.77
2023-01-20T08:54:40.670Z,23.78
2023-01-20T08:55:45.286Z,23.77
2023-01-20T08:58:01.988Z,23.89
2023-01-20T08:59:05.452Z,23.77
2023-01-20T09:00:10.491Z,23.76
2023-01-20T09:01:16.429Z,23.77
2023-01-20T09:02:18.991Z,23.77
2023-01-20T09:03:22.487Z,23.77
2023-01-20T09:04:26.717Z,23.76
2023-01-20T09:05:29.593Z,23.75
2023-01-20T09:06:37.867Z,23.75
2023-01-20T09:07:40.921Z,23.74
2023-01-20T09:08:43.959Z,23.73
2023-01-20T09:09:46.834Z,23.73
2023-01-20T09:10:49.398Z,23.71
2023-01-20T09:11:51.757Z,23.70
2023-01-20T09:12:53.975Z,23.71
2023-01-20T09:13:57.030Z,23.71
2023-01-20T09:14:59.396Z,23.71
2023-01-20T09:16:03.523Z,23.71
2023-01-20T09:17:05.961Z,23.69
2023-01-20T09:18:08.485Z,23.70
2023-01-20T09:19:11.006Z,23.70
2023-01-20T09:20:14.502Z,23.71
2023-01-20T09:21:18.752Z,23.70
2023-01-20T09:22:22.365Z,23.68
2023-01-20T09:23:26.744Z,23.68
2023-01-20T09:24:29.109Z,23.68
2023-01-20T09:25:31.304Z,23.68
2023-01-20T09:27:54.988Z,23.78
2023-01-20T09:28:57.329Z,23.67
2023-01-20T09:30:00.839Z,23.67
2023-01-20T09:31:06.236Z,23.68
2023-01-20T09:32:10.048Z,23.67
2023-01-20T09:33:13.283Z,23.68
2023-01-20T09:34:18.096Z,23.67
2023-01-20T09:35:20.629Z,23.68
2023-01-20T09:36:23.329Z,23.68
2023-01-20T09:37:45.451Z,23.70
2023-01-20T09:39:07.191Z,23.70
2023-01-20T09:47:14.535Z,23.41
2023-01-20T09:48:59.179Z,23.23
2023-01-20T12:21:08.968Z,20.89
2023-01-20T12:22:18.936Z,20.83
2023-01-20T12:23:34.612Z,20.90
2023-01-20T12:25:02.633Z,21.00
2023-01-20T12:26:05.384Z,21.13
2023-01-20T12:27:11.798Z,21.29
2023-01-20T12:28:45.422Z,21.39
2023-01-20T12:29:48.110Z,21.51
2023-01-20T12:30:59.446Z,21.69
2023-01-20T12:32:15.849Z,21.81
2023-01-20T12:34:43.375Z,22.21
2023-01-20T12:37:12.686Z,22.30
2023-01-20T12:38:17.819Z,22.39
2023-01-20T12:40:51.454Z,22.58
2023-01-20T12:43:35.692Z,22.77
2023-01-20T12:44:44.877Z,22.85
2023-01-20T12:46:20.228Z,22.94
2023-01-20T12:47:38.935Z,22.99
2023-01-20T12:48:51.035Z,23.06
2023-01-20T12:50:00.445Z,23.11
2023-01-20T12:51:12.316Z,23.15
2023-01-20T12:54:24.088Z,23.35
2023-01-20T12:56:03.788Z,23.25
2023-01-20T12:57:20.659Z,23.29
2023-01-20T12:58:42.613Z,23.32
2023-01-20T13:01:32.427Z,23.48
2023-01-20T13:02:50.444Z,23.38
2023-01-20T13:04:22.681Z,23.39
2023-01-20T13:05:56.761Z,23.42
2023-01-20T13:07:05.930Z,23.42
2023-01-20T13:08:23.672Z,23.45
2023-01-20T13:11:32.696Z,23.58
2023-01-20T13:14:18.217Z,23.58
2023-01-20T13:15:28.794Z,23.47
2023-01-20T13:16:38.123Z,23.47
2023-01-20T13:18:08.560Z,23.48
2023-01-20T13:19:18.676Z,23.50
2023-01-20T13:20:23.331Z,23.51
2023-01-20T13:21:27.939Z,23.52
2023-01-20T13:22:30.895Z,23.53
2023-01-20T13:23:34.997Z,23.53
2023-01-20T13:24:37.414Z,23.55
2023-01-20T13:25:40.430Z,23.56
2023-01-20T13:26:43.946Z,23.58
2023-01-20T13:27:46.303Z,23.59
2023-01-20T13:28:52.773Z,23.62
2023-01-20T13:29:56.786Z,23.62
2023-01-20T13:31:01.443Z,23.64
2023-01-20T13:32:04.750Z,23.64
2023-01-20T13:34:33.530Z,23.80
2023-01-20T13:37:10.619Z,23.83
2023-01-20T13:38:27.993Z,23.74
2023-01-20T13:39:54.077Z,23.75
2023-01-20T13:41:02.148Z,23.76
2023-01-20T13:42:24.817Z,23.78
2023-01-20T13:43:37.317Z,23.79
2023-01-20T13:44:42.346Z,23.80
2023-01-20T13:45:45.396Z,23.79
2023-01-20T13:46:49.704Z,23.80
2023-01-20T13:49:21.675Z,23.93
2023-01-20T13:50:37.027Z,23.82
2023-01-20T13:51:45.350Z,23.82
2023-01-20T13:52:56.673Z,23.81
2023-01-20T13:54:27.900Z,23.82
2023-01-20T13:55:44.599Z,23.83
2023-01-20T13:56:48.352Z,23.84
2023-01-20T13:57:50.837Z,23.84
2023-01-20T13:59:00.389Z,23.84
2023-01-20T14:00:07.193Z,23.84
2023-01-20T14:01:15.933Z,23.85
2023-01-20T14:02:19.273Z,23.86
2023-01-20T14:03:31.724Z,23.88
2023-01-20T14:04:35.271Z,23.90
2023-01-20T14:05:39.202Z,23.93
2023-01-20T14:06:46.804Z,23.93
2023-01-20T14:07:49.707Z,23.96
2023-01-20T14:08:53.441Z,23.95
2023-01-20T14:09:57.561Z,23.95
2023-01-20T14:11:15.807Z,23.95
2023-01-20T14:12:18.976Z,23.97
2023-01-20T14:13:24.133Z,23.98
2023-01-20T14:14:26.947Z,23.98
2023-01-20T14:15:33.446Z,23.97
2023-01-20T14:16:39.254Z,23.98
2023-01-20T14:17:41.791Z,23.98
2023-01-20T14:18:44.901Z,23.98
2023-01-20T14:19:48.482Z,23.98
2023-01-20T14:21:03.353Z,23.99
2023-01-20T14:22:26.189Z,24.00
2023-01-20T14:23:37.535Z,24.00
2023-01-20T14:24:44.080Z,24.00
2023-01-20T14:26:02.801Z,24.01
2023-01-20T14:28:46.444Z,24.12
2023-01-20T14:29:52.678Z,24.01
2023-01-20T14:32:29.526Z,24.12
2023-01-20T14:33:32.224Z,24.00
2023-01-20T14:34:35.688Z,24.00
2023-01-20T14:35:38.837Z,24.00
2023-01-20T14:36:41.269Z,24.00
2023-01-20T14:37:43.696Z,24.00
2023-01-20T14:38:57.802Z,24.02
2023-01-20T14:41:25.997Z,24.13
2023-01-20T14:42:29.145Z,24.02
2023-01-20T14:43:32.391Z,24.02
2023-01-20T14:44:34.965Z,24.02
2023-01-20T14:45:37.322Z,24.03
2023-01-20T14:46:40.159Z,24.02
2023-01-20T14:47:42.872Z,24.03
2023-01-20T14:48:45.708Z,24.03
2023-01-20T14:49:49.449Z,24.05
2023-01-20T14:50:54.430Z,24.05
2023-01-20T14:51:56.820Z,24.05
2023-01-20T14:52:59.980Z,24.05
2023-01-20T14:54:35.826Z,24.06
2023-01-20T14:55:43.981Z,24.06
2023-01-20T14:56:48.526Z,24.05
2023-01-20T14:57:51.487Z,24.04
2023-01-20T14:58:54.289Z,24.02
2023-01-20T15:00:16.354Z,24.02
2023-01-20T15:01:25.209Z,24.01
2023-01-20T15:02:34.283Z,23.99
2023-01-20T15:03:38.755Z,23.99
2023-01-20T15:04:42.208Z,23.99
2023-01-20T15:06:08.334Z,23.98
2023-01-20T15:07:14.844Z,23.98
2023-01-20T15:09:40.523Z,24.10
2023-01-20T15:10:43.245Z,23.99
2023-01-20T15:11:47.678Z,23.99
2023-01-20T15:12:52.478Z,23.98
2023-01-20T15:13:59.655Z,23.98
2023-01-20T15:15:13.558Z,23.98
2023-01-20T15:17:32.660Z,24.09
2023-01-20T15:18:37.051Z,23.98
2023-01-20T15:19:41.472Z,23.97
2023-01-20T15:20:47.671Z,23.97
2023-01-20T15:21:51.495Z,23.98
2023-01-20T15:22:53.960Z,23.97
2023-01-20T15:23:58.759Z,23.97
2023-01-20T15:25:04.927Z,23.97
2023-01-20T15:26:29.281Z,23.98
2023-01-20T15:27:32.721Z,23.97
2023-01-20T15:28:37.469Z,23.97
2023-01-20T15:29:39.805Z,23.99
2023-01-20T15:30:43.180Z,23.98
2023-01-20T15:31:46.024Z,23.97
2023-01-20T15:32:48.722Z,23.98
2023-01-20T15:33:51.524Z,23.98
2023-01-20T15:34:56.750Z,23.99
2023-01-20T15:36:00.691Z,23.99
2023-01-20T15:37:03.547Z,24.00
2023-01-20T15:38:14.086Z,24.02
2023-01-20T15:40:35.049Z,24.13
2023-01-20T15:41:37.488Z,24.02
2023-01-20T15:42:41.645Z,24.03
2023-01-20T15:43:48.498Z,24.02
2023-01-20T15:44:51.402Z,24.03
2023-01-20T15:45:55.845Z,24.03
2023-01-20T15:46:58.207Z,24.03
2023-01-20T15:48:00.572Z,24.04
2023-01-20T15:49:03.389Z,24.05
2023-01-20T15:51:25.864Z,24.15
2023-01-20T15:52:28.464Z,24.06
2023-01-20T15:53:30.835Z,24.05
2023-01-20T15:54:33.924Z,24.05
2023-01-20T15:55:39.367Z,24.05
2023-01-20T15:56:43.454Z,24.05
2023-01-20T15:57:49.058Z,24.06
2023-01-20T15:58:51.535Z,24.07
2023-01-20T15:59:55.000Z,24.07
2023-01-20T16:00:58.241Z,24.08
2023-01-20T16:02:00.731Z,24.08
2023-01-20T16:03:03.285Z,24.09
2023-01-20T16:04:05.641Z,24.09
2023-01-20T16:05:08.277Z,24.10
2023-01-20T16:06:18.940Z,24.10
2023-01-20T16:07:23.487Z,24.10
2023-01-20T16:08:35.079Z,24.10
2023-01-20T16:09:38.614Z,24.11
2023-01-20T16:10:41.387Z,24.10
2023-01-20T16:11:43.698Z,24.10
2023-01-20T16:12:46.725Z,24.09
2023-01-20T16:13:49.463Z,24.10
2023-01-20T16:14:52.318Z,24.10
2023-01-20T16:15:54.673Z,24.11
2023-01-20T16:16:58.328Z,24.12
2023-01-20T16:18:00.772Z,24.11
2023-01-20T16:19:04.924Z,24.07
2023-01-20T16:21:32.418Z,24.23
2023-01-20T16:22:34.652Z,24.13
2023-01-20T16:23:39.480Z,24.14
2023-01-20T16:24:43.291Z,24.12
2023-01-20T16:25:46.203Z,24.13
2023-01-20T16:26:48.820Z,24.13
2023-01-20T16:27:51.318Z,24.14
2023-01-20T16:28:55.174Z,24.14
2023-01-20T16:29:58.241Z,24.14
2023-01-20T16:31:01.910Z,24.15
2023-01-20T16:32:05.286Z,24.15
2023-01-20T16:34:29.908Z,24.27
2023-01-20T16:35:32.480Z,24.15
2023-01-20T16:36:34.812Z,24.15
2023-01-20T16:37:37.204Z,24.17
2023-01-20T16:38:41.293Z,24.16
2023-01-20T16:39:44.780Z,24.17
2023-01-20T16:40:50.974Z,24.17
2023-01-20T16:41:53.779Z,24.17
2023-01-20T16:42:56.580Z,24.17
2023-01-20T16:43:59.734Z,24.18
2023-01-20T16:45:03.262Z,24.18
2023-01-20T16:46:05.728Z,24.18
2023-01-20T16:47:08.124Z,24.18
2023-01-20T16:48:10.818Z,24.19
2023-01-20T16:49:13.866Z,24.19
2023-01-20T16:50:18.630Z,24.19
2023-01-20T16:51:23.741Z,24.19
2023-01-20T16:52:27.095Z,24.19
2023-01-20T16:53:29.501Z,24.19
2023-01-20T16:54:31.699Z,24.20
2023-01-20T16:55:34.986Z,24.20
2023-01-20T16:56:40.033Z,24.20
2023-01-20T16:57:43.637Z,24.20
2023-01-20T16:58:46.957Z,24.20
2023-01-20T16:59:49.426Z,24.20
2023-01-20T17:00:52.172Z,24.20
2023-01-20T17:01:55.481Z,24.21
2023-01-20T17:02:59.658Z,24.21
2023-01-20T17:04:03.283Z,24.21
2023-01-20T17:05:09.274Z,24.20
2023-01-20T17:06:14.446Z,24.21
2023-01-20T17:07:20.570Z,24.22
2023-01-20T17:08:23.117Z,24.21
2023-01-20T17:09:25.999Z,24.23
2023-01-20T17:10:29.463Z,24.23
2023-01-20T17:11:33.878Z,24.22
2023-01-20T17:12:37.247Z,24.23
2023-01-20T17:13:39.597Z,24.23
2023-01-20T17:14:42.058Z,24.24
2023-01-20T17:15:44.357Z,24.24
2023-01-20T17:16:48.163Z,24.24
2023-01-20T17:17:53.704Z,24.24
2023-01-20T17:18:59.047Z,24.24
2023-01-20T17:20:02.069Z,24.25
2023-01-20T17:21:06.065Z,24.26
2023-01-20T17:22:08.641Z,24.25
2023-01-20T17:23:11.734Z,24.26
2023-01-20T17:24:14.715Z,24.26
2023-01-20T17:25:17.977Z,24.27
2023-01-20T17:26:21.793Z,24.27
2023-01-20T17:27:24.463Z,24.27
2023-01-20T17:28:26.903Z,24.27
2023-01-20T17:29:29.340Z,24.28
2023-01-20T17:30:32.217Z,24.28
2023-01-20T17:31:37.384Z,24.29
2023-01-20T17:32:39.917Z,24.29
2023-01-20T17:33:45.855Z,24.28
2023-01-20T17:34:49.440Z,24.28
2023-01-20T17:35:59.483Z,24.28
2023-01-20T17:37:02.109Z,24.28
2023-01-20T17:38:06.003Z,24.29
2023-01-20T17:39:09.843Z,24.29
2023-01-20T17:40:13.604Z,24.28
2023-01-20T17:41:16.718Z,24.28
2023-01-20T17:42:19.448Z,24.29
2023-01-20T17:43:21.995Z,24.17
2023-01-20T17:44:25.528Z,24.17
2023-01-20T17:45:30.062Z,24.28
2023-01-20T17:46:32.939Z,24.28
2023-01-20T21:19:29.526Z,20.97
2023-01-20T21:20:32.744Z,20.89
2023-01-20T21:21:35.731Z,20.98
2023-01-20T21:22:38.418Z,21.07
2023-01-20T21:23:42.437Z,21.17
2023-01-20T21:24:44.848Z,21.29
2023-01-20T21:25:47.149Z,21.42
2023-01-20T21:26:50.199Z,21.52
2023-01-20T21:27:54.933Z,21.64
2023-01-20T21:29:00.542Z,21.75
2023-01-20T21:30:04.932Z,21.86
2023-01-20T21:31:09.529Z,21.97
2023-01-20T21:32:12.478Z,22.09
2023-01-20T21:33:17.305Z,22.18
2023-01-20T21:34:20.994Z,22.28
2023-01-20T21:35:23.703Z,22.37
2023-01-20T21:36:28.288Z,22.45
2023-01-20T21:37:32.201Z,22.53
2023-01-20T21:38:36.764Z,22.61
2023-01-20T21:39:40.531Z,22.69
2023-01-20T21:40:45.679Z,22.76